KCYS/CYS METAR and TAF weather

Enter ICAO airport designator
Station Type Date Time Source
KCYS METAR 2021/08/01 16:53 UTC NOAA

KCYS 011653Z 15006KT 6SM HZ CLR 23/06 A3048 RMK AO2 SLP240 T02330061


Station Type Date Time Source
KCYS Decoded METAR 2021/08/01 16:53 UTC NOAA

CHEYENNE AIRPORT, WY, United States (KCYS) 41-09N 104-48W 1865M
Aug 01, 2021 - 12:53 PM EDT / 2021.08.01 1653 UTC
Wind: from the SSE (150 degrees) at 7 MPH (6 KT):0
Visibility: 6 mile(s):0
Sky conditions: clear
Weather: haze
Temperature: 73.9 F (23.3 C)
Dew Point: 43.0 F (6.1 C)
Relative Humidity: 32%
Pressure (altimeter): 30.48 in. Hg (1032 hPa)
ob: KCYS 011653Z 15006KT 6SM HZ CLR 23/06 A3048 RMK AO2 SLP240 T02330061
cycle: 17

Station Type Date Time Source
KCYS TAF 2021/08/01 12:22 UTC NOAA

TAF KCYS 011120Z 0112/0212 VRB05KT 5SM HZ SCT050
FM011500 19010KT 5SM HZ BKN050
FM011800 16012G20KT 6SM HZ SCT050
FM012000 17010G20KT 6SM HZ SKC
FM012300 20006KT 6SM HZ SKC

Example: see airport list